createdAt,value
2017-12-25T00:02:12.466Z,76.10
2017-12-25T00:04:40.428Z,76.60
2017-12-25T00:07:08.019Z,75.50
2017-12-25T00:09:35.706Z,75.30
2017-12-25T00:12:04.130Z,75.50
2017-12-25T00:14:32.024Z,75.50
2017-12-25T00:16:59.675Z,75.70
2017-12-25T00:19:27.306Z,76.40
2017-12-25T00:21:54.918Z,77.00
2017-12-25T00:24:22.597Z,75.20
2017-12-25T00:26:50.206Z,75.20
2017-12-25T00:29:17.798Z,75.30
2017-12-25T00:31:45.452Z,75.10
2017-12-25T00:34:13.018Z,75.60
2017-12-25T00:36:40.621Z,75.10
2017-12-25T00:39:09.777Z,76.20
2017-12-25T00:41:37.439Z,76.10
2017-12-25T00:44:05.077Z,75.80
2017-12-25T00:46:32.653Z,75.10
2017-12-25T00:49:00.252Z,75.90
2017-12-25T00:51:28.885Z,74.90
2017-12-25T00:53:56.467Z,74.90
2017-12-25T00:56:24.046Z,75.30
2017-12-25T00:58:52.483Z,75.20
2017-12-25T01:01:20.071Z,75.20
2017-12-25T01:03:47.721Z,74.90
2017-12-25T01:06:15.281Z,75.30
2017-12-25T01:08:42.954Z,74.40
2017-12-25T01:11:10.579Z,75.10
2017-12-25T01:13:38.224Z,74.50
2017-12-25T01:16:05.940Z,75.90
2017-12-25T01:18:33.531Z,74.80
2017-12-25T01:21:01.095Z,75.80
2017-12-25T01:23:28.670Z,74.80
2017-12-25T01:25:56.289Z,74.10
2017-12-25T01:28:23.852Z,74.80
2017-12-25T01:30:51.503Z,75.10
2017-12-25T01:33:19.073Z,75.90
2017-12-25T01:35:46.633Z,74.70
2017-12-25T01:38:14.347Z,74.20
2017-12-25T01:40:42.690Z,74.50
2017-12-25T01:43:10.296Z,74.50
2017-12-25T01:45:37.855Z,74.10
2017-12-25T01:48:05.761Z,74.50
2017-12-25T01:50:34.501Z,74.20
2017-12-25T01:53:02.136Z,74.20
2017-12-25T01:55:31.546Z,76.40
2017-12-25T01:58:00.181Z,74.20
2017-12-25T02:03:34.415Z,74.70
2017-12-25T02:06:09.465Z,75.20
2017-12-25T02:08:37.301Z,75.20
2017-12-25T02:11:04.880Z,76.70
2017-12-25T02:13:32.452Z,74.40
2017-12-25T02:16:00.257Z,75.10
2017-12-25T02:18:27.845Z,73.40
2017-12-25T02:20:55.436Z,73.40
2017-12-25T02:23:23.036Z,73.10
2017-12-25T02:25:50.629Z,74.10
2017-12-25T02:28:19.197Z,73.80
2017-12-25T02:30:46.812Z,73.70
2017-12-25T02:33:14.430Z,72.90
2017-12-25T02:35:42.663Z,72.80
2017-12-25T02:38:10.283Z,72.20
2017-12-25T02:40:37.861Z,73.40
2017-12-25T02:43:05.485Z,72.50
2017-12-25T02:45:33.891Z,72.00
2017-12-25T02:48:01.527Z,72.00
2017-12-25T02:50:29.157Z,71.80
2017-12-25T02:52:56.780Z,72.00
2017-12-25T02:55:24.364Z,71.80
2017-12-25T02:57:51.971Z,71.70
2017-12-25T03:00:19.533Z,71.10
2017-12-25T03:02:47.138Z,72.40
2017-12-25T03:05:14.877Z,71.50
2017-12-25T03:07:42.870Z,71.70
2017-12-25T03:10:10.508Z,71.20
2017-12-25T03:12:38.094Z,71.40
2017-12-25T03:15:05.749Z,72.10
2017-12-25T03:17:33.368Z,71.50
2017-12-25T03:20:01.401Z,71.10
2017-12-25T03:22:28.998Z,71.20
2017-12-25T03:24:56.938Z,73.10
2017-12-25T03:27:24.574Z,72.80
2017-12-25T03:29:52.983Z,71.70
2017-12-25T03:32:20.772Z,70.50
2017-12-25T03:34:48.398Z,71.80
2017-12-25T03:37:15.953Z,75.10
2017-12-25T03:39:43.613Z,71.30
2017-12-25T03:42:11.198Z,71.50
2017-12-25T03:44:39.579Z,71.20
2017-12-25T03:47:07.929Z,70.60
2017-12-25T03:49:35.606Z,70.60
2017-12-25T03:52:03.392Z,70.30
2017-12-25T03:54:31.850Z,69.60
2017-12-25T03:56:59.464Z,69.60
2017-12-25T03:59:27.063Z,70.20
2017-12-25T04:01:54.625Z,68.70
2017-12-25T04:04:22.297Z,69.30
2017-12-25T04:06:49.836Z,69.80
2017-12-25T04:09:18.286Z,68.50
2017-12-25T04:11:45.845Z,68.50
2017-12-25T04:14:13.463Z,70.40
2017-12-25T04:16:41.815Z,69.00
2017-12-25T04:19:09.440Z,69.00
2017-12-25T04:21:37.324Z,68.00
2017-12-25T04:24:04.936Z,68.90
2017-12-25T04:26:33.315Z,68.60
2017-12-25T04:29:00.923Z,68.70
2017-12-25T04:31:28.578Z,69.00
2017-12-25T04:33:56.236Z,69.50
2017-12-25T04:36:23.858Z,68.00
2017-12-25T04:38:51.574Z,69.50
2017-12-25T04:41:19.174Z,68.50
2017-12-25T04:43:47.507Z,71.50
2017-12-25T04:46:15.222Z,71.50
2017-12-25T04:48:43.010Z,70.60
2017-12-25T04:51:11.367Z,72.30
2017-12-25T04:53:38.959Z,72.30
2017-12-25T04:56:06.599Z,71.60
2017-12-25T04:58:34.975Z,73.40
2017-12-25T05:01:02.679Z,73.40
2017-12-25T05:03:30.710Z,73.30
2017-12-25T05:05:59.051Z,72.90
2017-12-25T05:08:26.648Z,72.40
2017-12-25T05:10:54.841Z,72.50
2017-12-25T05:13:22.803Z,72.50
2017-12-25T05:15:51.169Z,74.20
2017-12-25T05:18:18.897Z,74.10
2017-12-25T05:20:46.481Z,74.70
2017-12-25T05:23:14.068Z,74.20
2017-12-25T05:25:41.687Z,73.80
2017-12-25T05:28:09.318Z,73.10
2017-12-25T05:30:36.955Z,73.30
2017-12-25T05:33:04.532Z,74.10
2017-12-25T05:35:32.177Z,75.60
2017-12-25T05:38:00.270Z,76.40
2017-12-25T05:40:27.943Z,74.60
2017-12-25T05:42:55.710Z,76.00
2017-12-25T05:45:23.791Z,75.90
2017-12-25T05:47:51.364Z,74.90
2017-12-25T05:50:18.956Z,75.80
2017-12-25T05:52:47.340Z,75.40
2017-12-25T05:55:15.944Z,76.30
2017-12-25T05:57:43.540Z,76.20
2017-12-25T06:00:11.179Z,75.80
2017-12-25T06:02:39.257Z,76.40
2017-12-25T06:05:06.833Z,75.20
2017-12-25T06:07:34.462Z,75.00
2017-12-25T06:10:02.135Z,76.50
2017-12-25T06:12:29.785Z,75.50
2017-12-25T06:14:57.466Z,75.60
2017-12-25T06:17:25.558Z,74.90
2017-12-25T06:19:53.176Z,75.30
2017-12-25T06:22:20.779Z,74.80
2017-12-25T06:24:48.360Z,74.60
2017-12-25T06:27:16.043Z,74.10
2017-12-25T06:29:45.363Z,74.40
2017-12-25T06:32:14.418Z,74.50
2017-12-25T06:34:42.777Z,74.00
2017-12-25T06:37:10.371Z,74.00
2017-12-25T06:39:38.051Z,74.00
2017-12-25T06:42:05.698Z,74.10
2017-12-25T06:44:33.286Z,74.60
2017-12-25T06:47:00.880Z,74.60
2017-12-25T06:49:28.508Z,74.30
2017-12-25T06:51:56.124Z,75.70
2017-12-25T06:54:23.744Z,74.50
2017-12-25T06:56:51.428Z,74.10
2017-12-25T06:59:19.027Z,74.00
2017-12-25T07:01:47.034Z,74.10
2017-12-25T07:04:15.260Z,74.20
2017-12-25T07:06:43.696Z,73.60
2017-12-25T07:09:12.552Z,74.50
2017-12-25T07:11:40.446Z,73.70
2017-12-25T07:14:08.072Z,73.50
2017-12-25T07:16:36.027Z,73.70
2017-12-25T07:19:04.317Z,73.90
2017-12-25T07:21:31.976Z,74.20
2017-12-25T07:23:59.557Z,73.40
2017-12-25T07:26:27.489Z,73.10
2017-12-25T07:28:55.073Z,74.40
2017-12-25T07:31:22.690Z,73.70
2017-12-25T07:33:50.899Z,72.90
2017-12-25T07:36:18.571Z,73.00
2017-12-25T07:38:46.941Z,72.90
2017-12-25T07:41:14.513Z,72.90
2017-12-25T07:43:42.108Z,72.50
2017-12-25T07:46:09.709Z,73.80
2017-12-25T07:48:37.387Z,73.40
2017-12-25T07:51:05.755Z,72.30
2017-12-25T07:53:33.319Z,72.20
2017-12-25T07:56:01.242Z,72.70
2017-12-25T07:58:28.959Z,72.80
2017-12-25T08:00:56.573Z,73.50
2017-12-25T08:03:24.175Z,72.60
2017-12-25T08:05:51.886Z,71.90
2017-12-25T08:08:19.550Z,71.80
2017-12-25T08:10:47.210Z,72.70
2017-12-25T08:13:15.334Z,72.10
2017-12-25T08:15:42.946Z,71.00
2017-12-25T08:18:10.576Z,72.00
2017-12-25T08:20:38.168Z,70.80
2017-12-25T08:23:05.805Z,71.80
2017-12-25T08:25:33.982Z,72.50
2017-12-25T08:28:01.640Z,70.00
2017-12-25T08:30:29.234Z,70.40
2017-12-25T08:32:56.831Z,71.90
2017-12-25T08:35:24.396Z,73.10
2017-12-25T08:37:52.103Z,70.00
2017-12-25T08:40:19.672Z,69.00
2017-12-25T08:42:47.305Z,70.00
2017-12-25T08:45:15.760Z,71.80
2017-12-25T08:47:43.372Z,71.70
2017-12-25T08:50:11.119Z,70.20
2017-12-25T08:52:39.088Z,71.30
2017-12-25T08:55:06.795Z,67.70
2017-12-25T08:57:34.450Z,68.20
2017-12-25T09:00:02.069Z,69.70
2017-12-25T09:02:29.642Z,67.90
2017-12-25T09:04:57.205Z,69.10
2017-12-25T09:07:25.587Z,67.20
2017-12-25T09:09:53.821Z,67.20
2017-12-25T09:12:21.426Z,69.50
2017-12-25T09:14:49.443Z,69.20
2017-12-25T09:17:17.105Z,68.30
2017-12-25T09:19:44.663Z,67.80
2017-12-25T09:22:12.371Z,66.90
2017-12-25T09:24:41.296Z,65.90
2017-12-25T09:27:08.926Z,65.90
2017-12-25T09:29:37.030Z,67.20
2017-12-25T09:32:04.613Z,66.90
2017-12-25T09:34:32.175Z,65.10
2017-12-25T09:36:59.781Z,65.10
2017-12-25T09:39:27.479Z,66.60
2017-12-25T09:41:55.068Z,63.80
2017-12-25T09:44:22.719Z,66.00
2017-12-25T09:46:50.278Z,65.90
2017-12-25T09:49:17.881Z,68.20
2017-12-25T09:51:46.298Z,63.50
2017-12-25T09:54:14.116Z,63.50
2017-12-25T09:56:42.488Z,66.20
2017-12-25T09:59:10.893Z,64.70
2017-12-25T10:01:38.479Z,64.90
2017-12-25T10:04:06.053Z,66.60
2017-12-25T10:06:33.707Z,66.40
2017-12-25T10:09:01.282Z,64.30
2017-12-25T10:11:28.878Z,65.60
2017-12-25T10:13:57.251Z,65.80
2017-12-25T10:16:24.872Z,66.20
2017-12-25T10:18:52.710Z,65.10
2017-12-25T10:21:20.343Z,66.00
2017-12-25T10:23:48.723Z,66.50
2017-12-25T10:26:16.527Z,65.80
2017-12-25T10:28:44.775Z,65.40
2017-12-25T10:31:12.954Z,66.20
2017-12-25T10:33:41.447Z,65.70
2017-12-25T10:36:09.238Z,65.70
2017-12-25T10:38:36.878Z,65.40
2017-12-25T10:41:04.974Z,67.80
2017-12-25T10:43:32.552Z,66.80
2017-12-25T10:46:00.105Z,67.10
2017-12-25T10:48:28.588Z,65.10
2017-12-25T10:50:56.995Z,66.40
2017-12-25T10:53:24.588Z,66.30
2017-12-25T10:55:52.200Z,66.40
2017-12-25T10:58:19.794Z,65.30
2017-12-25T11:00:54.035Z,65.90
2017-12-25T11:03:22.043Z,65.80
2017-12-25T11:05:49.605Z,65.80
2017-12-25T11:08:17.158Z,66.20
2017-12-25T11:10:44.716Z,66.50
2017-12-25T11:13:12.318Z,67.80
2017-12-25T11:15:39.894Z,66.00
2017-12-25T11:18:07.498Z,67.50
2017-12-25T11:20:35.085Z,66.40
2017-12-25T11:23:02.779Z,67.10
2017-12-25T11:25:30.347Z,68.50
2017-12-25T11:27:57.939Z,67.30
2017-12-25T11:30:25.529Z,67.90
2017-12-25T11:32:53.169Z,68.00
2017-12-25T11:35:20.772Z,67.00
2017-12-25T11:37:48.323Z,68.10
2017-12-25T11:40:16.040Z,69.20
2017-12-25T11:42:43.713Z,66.50
2017-12-25T11:45:11.274Z,66.40
2017-12-25T11:47:39.225Z,66.50
2017-12-25T11:50:06.945Z,67.90
2017-12-25T11:52:34.530Z,67.30
2017-12-25T11:55:02.125Z,66.70
2017-12-25T11:57:29.752Z,68.10
2017-12-25T11:59:57.336Z,66.00
2017-12-25T12:02:25.616Z,66.20
2017-12-25T12:04:53.201Z,65.70
2017-12-25T12:07:20.941Z,65.60
2017-12-25T12:09:49.423Z,65.80
2017-12-25T12:12:17.095Z,65.80
2017-12-25T12:14:44.697Z,65.70
2017-12-25T12:17:12.357Z,68.70
2017-12-25T12:19:40.528Z,63.60
2017-12-25T12:22:08.879Z,63.70
2017-12-25T12:24:37.283Z,66.80
2017-12-25T12:27:04.865Z,66.70
2017-12-25T12:29:32.467Z,63.70
2017-12-25T12:32:00.212Z,63.50
2017-12-25T12:34:27.933Z,61.60
2017-12-25T12:36:55.564Z,62.80
2017-12-25T12:39:23.165Z,62.80
2017-12-25T12:41:50.781Z,61.10
2017-12-25T12:44:19.077Z,63.60
2017-12-25T12:46:46.654Z,62.50
2017-12-25T12:49:15.025Z,65.30
2017-12-25T12:51:42.964Z,65.20
2017-12-25T12:54:10.903Z,62.60
2017-12-25T12:56:38.578Z,64.70
2017-12-25T12:59:06.185Z,62.20
2017-12-25T13:01:34.539Z,67.00
2017-12-25T13:04:02.148Z,67.00
2017-12-25T13:06:29.786Z,66.00
2017-12-25T13:08:57.576Z,64.70
2017-12-25T13:11:25.264Z,64.50
2017-12-25T13:13:52.835Z,66.10
2017-12-25T13:16:20.530Z,64.00
2017-12-25T13:18:48.299Z,65.10
2017-12-25T13:21:16.091Z,65.30
2017-12-25T13:23:43.689Z,65.80
2017-12-25T13:26:11.856Z,65.60
2017-12-25T13:28:39.434Z,67.00
2017-12-25T13:31:07.044Z,65.30
2017-12-25T13:33:35.396Z,65.70
2017-12-25T13:36:03.769Z,67.00
2017-12-25T13:38:31.376Z,67.10
2017-12-25T13:40:58.991Z,66.70
2017-12-25T13:43:26.570Z,69.80
2017-12-25T13:45:54.275Z,67.00
2017-12-25T13:48:21.875Z,67.60
2017-12-25T13:50:49.466Z,66.30
2017-12-25T13:53:17.992Z,67.10
2017-12-25T13:55:46.964Z,67.10
2017-12-25T13:58:14.545Z,67.90
2017-12-25T14:00:42.197Z,69.10
2017-12-25T14:03:09.792Z,66.40
2017-12-25T14:05:37.393Z,67.30
2017-12-25T14:08:04.979Z,66.40
2017-12-25T14:10:32.554Z,67.00
2017-12-25T14:13:01.426Z,68.00
2017-12-25T14:15:29.004Z,68.00
2017-12-25T14:17:57.032Z,67.20
2017-12-25T14:20:24.604Z,67.60
2017-12-25T14:22:52.235Z,67.30
2017-12-25T14:25:20.575Z,68.20
2017-12-25T14:27:48.170Z,68.00
2017-12-25T14:30:15.731Z,67.30
2017-12-25T14:32:43.376Z,67.40
2017-12-25T14:35:11.506Z,67.30
2017-12-25T14:37:39.125Z,68.00
2017-12-25T14:40:07.477Z,67.90
2017-12-25T14:42:35.079Z,67.90
2017-12-25T14:45:02.642Z,66.50
2017-12-25T14:47:30.389Z,68.00
2017-12-25T14:49:58.111Z,66.90
2017-12-25T14:52:25.754Z,69.60
2017-12-25T14:54:53.316Z,68.50
2017-12-25T14:57:20.890Z,66.80
2017-12-25T14:59:48.468Z,68.20
2017-12-25T15:02:16.058Z,67.50
2017-12-25T15:04:44.399Z,69.40
2017-12-25T15:07:12.787Z,68.00
2017-12-25T15:09:40.387Z,68.00
2017-12-25T15:12:07.982Z,67.50
2017-12-25T15:14:35.580Z,69.30
2017-12-25T15:17:03.959Z,68.50
2017-12-25T15:19:31.558Z,68.40
2017-12-25T15:21:59.189Z,67.50
2017-12-25T15:24:26.878Z,68.10
2017-12-25T15:26:54.987Z,68.80
2017-12-25T15:29:23.373Z,68.30
2017-12-25T15:31:51.035Z,67.90
2017-12-25T15:34:18.650Z,68.30
2017-12-25T15:36:46.310Z,69.50
2017-12-25T15:39:15.044Z,70.90
2017-12-25T15:41:42.707Z,70.80
2017-12-25T15:44:10.326Z,68.00
2017-12-25T15:46:38.768Z,68.90
2017-12-25T15:49:07.536Z,69.10
2017-12-25T15:51:35.153Z,66.80
2017-12-25T15:54:03.212Z,69.00
2017-12-25T15:56:31.293Z,68.90
2017-12-25T15:58:58.895Z,69.60
2017-12-25T16:01:26.480Z,71.00
2017-12-25T16:03:54.148Z,69.70
2017-12-25T16:06:21.756Z,69.80
2017-12-25T16:08:49.336Z,69.50
2017-12-25T16:11:16.948Z,69.50
2017-12-25T16:13:44.527Z,70.40
2017-12-25T16:16:12.271Z,69.90
2017-12-25T16:18:40.066Z,70.70
2017-12-25T16:21:07.673Z,68.90
2017-12-25T16:23:35.256Z,69.90
2017-12-25T16:26:02.873Z,70.20
2017-12-25T16:28:31.872Z,69.70
2017-12-25T16:30:59.478Z,69.90
2017-12-25T16:33:28.113Z,68.20
2017-12-25T16:35:55.695Z,68.00
2017-12-25T16:38:23.331Z,69.70
2017-12-25T16:40:51.020Z,69.80
2017-12-25T16:43:19.442Z,69.20
2017-12-25T16:45:47.065Z,69.20
2017-12-25T16:48:14.839Z,69.90
2017-12-25T16:50:42.450Z,71.70
2017-12-25T16:53:10.095Z,70.10
2017-12-25T16:55:38.312Z,68.80
2017-12-25T16:58:06.060Z,70.40
2017-12-25T17:00:33.695Z,68.80
2017-12-25T17:03:01.924Z,68.60
2017-12-25T17:05:30.232Z,68.00
2017-12-25T17:07:57.929Z,68.40
2017-12-25T17:10:25.645Z,68.20
2017-12-25T17:12:53.295Z,68.50
2017-12-25T17:15:20.902Z,70.10
2017-12-25T17:17:48.541Z,68.60
2017-12-25T17:20:16.316Z,68.40
2017-12-25T17:22:44.708Z,70.00
2017-12-25T17:25:12.291Z,70.00
2017-12-25T17:27:39.876Z,71.50
2017-12-25T17:30:07.490Z,69.80
2017-12-25T17:32:35.049Z,68.30
2017-12-25T17:35:03.449Z,69.60
2017-12-25T17:37:31.436Z,69.10
2017-12-25T17:40:00.587Z,69.70
2017-12-25T17:42:29.099Z,68.40
2017-12-25T17:44:56.674Z,69.10
2017-12-25T17:47:24.300Z,69.10
2017-12-25T17:49:51.858Z,68.30
2017-12-25T17:52:19.485Z,68.90
2017-12-25T17:54:47.836Z,71.90
2017-12-25T17:57:15.441Z,71.80
2017-12-25T17:59:43.013Z,69.80
2017-12-25T18:02:11.421Z,69.30
2017-12-25T18:04:39.075Z,69.30
2017-12-25T18:07:06.668Z,67.50
2017-12-25T18:09:35.972Z,68.70
2017-12-25T18:12:04.095Z,68.50
2017-12-25T18:14:31.794Z,69.40
2017-12-25T18:17:00.247Z,69.70
2017-12-25T18:19:28.785Z,67.70
2017-12-25T18:21:56.948Z,68.70
2017-12-25T18:24:27.435Z,68.00
2017-12-25T18:26:55.252Z,68.10
2017-12-25T18:29:22.874Z,68.00
2017-12-25T18:31:50.434Z,70.60
2017-12-25T18:34:18.020Z,68.00
2017-12-25T18:36:45.627Z,66.70
2017-12-25T18:39:13.276Z,66.70
2017-12-25T18:41:40.849Z,67.50
2017-12-25T18:44:09.221Z,69.40
2017-12-25T18:46:36.816Z,69.30
2017-12-25T18:49:04.501Z,67.30
2017-12-25T18:51:32.075Z,69.00
2017-12-25T18:53:59.746Z,68.60
2017-12-25T18:56:27.310Z,69.30
2017-12-25T18:58:55.811Z,67.00
2017-12-25T19:01:23.405Z,66.50
2017-12-25T19:03:51.831Z,67.00
2017-12-25T19:06:19.413Z,66.70
2017-12-25T19:08:47.801Z,65.30
2017-12-25T19:11:15.417Z,65.40
2017-12-25T19:13:43.803Z,65.60
2017-12-25T19:16:11.405Z,67.70
2017-12-25T19:18:39.031Z,68.30
2017-12-25T19:21:06.598Z,65.50
2017-12-25T19:23:34.960Z,66.80
2017-12-25T19:26:02.527Z,66.10
2017-12-25T19:28:30.210Z,64.60
2017-12-25T19:30:57.838Z,64.80
2017-12-25T19:33:25.664Z,66.10
2017-12-25T19:35:53.759Z,68.00
2017-12-25T19:38:21.374Z,67.40
2017-12-25T19:40:50.197Z,66.00
2017-12-25T19:43:17.886Z,65.50
2017-12-25T19:45:45.430Z,65.40
2017-12-25T19:48:13.291Z,64.90
2017-12-25T19:50:40.898Z,67.10
2017-12-25T19:53:08.519Z,66.20
2017-12-25T19:55:36.120Z,66.20
2017-12-25T19:58:06.720Z,67.30
2017-12-25T20:00:34.341Z,67.30
2017-12-25T20:03:01.929Z,68.20
2017-12-25T20:05:29.664Z,65.30
2017-12-25T20:07:57.242Z,64.90
2017-12-25T20:10:24.887Z,67.20
2017-12-25T20:12:53.212Z,64.80
2017-12-25T20:15:20.873Z,65.50
2017-12-25T20:17:48.490Z,65.20
2017-12-25T20:20:18.681Z,65.60
2017-12-25T20:22:46.400Z,65.60
2017-12-25T20:25:14.059Z,66.20
2017-12-25T20:27:42.546Z,66.60
2017-12-25T20:30:10.171Z,66.90
2017-12-25T20:32:37.765Z,67.30
2017-12-25T20:35:05.402Z,67.00
2017-12-25T20:37:33.141Z,66.80
2017-12-25T20:40:01.656Z,66.70
2017-12-25T20:42:29.286Z,66.80
2017-12-25T20:44:57.779Z,68.20
2017-12-25T20:47:26.175Z,67.70
2017-12-25T20:49:54.479Z,67.60
2017-12-25T20:52:22.076Z,67.60
2017-12-25T20:54:51.237Z,66.70
2017-12-25T20:57:18.806Z,66.60
2017-12-25T20:59:46.378Z,68.40
2017-12-25T21:02:14.780Z,67.00
2017-12-25T21:04:43.171Z,67.80
2017-12-25T21:07:11.534Z,68.10
2017-12-25T21:09:39.146Z,68.00
2017-12-25T21:12:06.707Z,66.70
2017-12-25T21:14:34.266Z,66.60
2017-12-25T21:17:02.283Z,67.00
2017-12-25T21:19:29.859Z,68.20
2017-12-25T21:21:57.431Z,66.90
2017-12-25T21:24:25.039Z,68.40
2017-12-25T21:26:52.666Z,68.70
2017-12-25T21:29:21.204Z,66.80
2017-12-25T21:31:48.831Z,67.40
2017-12-25T21:34:16.405Z,65.40
2017-12-25T21:36:44.228Z,66.20
2017-12-25T21:39:11.889Z,66.60
2017-12-25T21:41:39.488Z,67.20
2017-12-25T21:44:07.107Z,68.10
2017-12-25T21:46:35.329Z,66.10
2017-12-25T21:49:03.645Z,67.40
2017-12-25T21:51:31.213Z,70.40
2017-12-25T21:53:59.034Z,70.00
2017-12-25T21:56:26.631Z,70.40
2017-12-25T21:58:54.963Z,70.80
2017-12-25T22:01:22.617Z,70.80
2017-12-25T22:03:51.031Z,71.80
2017-12-25T22:06:19.319Z,71.80
2017-12-25T22:08:47.055Z,71.40
2017-12-25T22:11:14.701Z,71.70
2017-12-25T22:13:42.299Z,73.10
2017-12-25T22:16:09.932Z,76.30
2017-12-25T22:18:37.545Z,73.20
2017-12-25T22:21:05.793Z,72.90
2017-12-25T22:23:33.397Z,72.50
2017-12-25T22:26:01.295Z,73.60
2017-12-25T22:28:28.870Z,73.20
2017-12-25T22:30:56.472Z,73.80
2017-12-25T22:33:24.805Z,74.90
2017-12-25T22:35:52.459Z,74.80
2017-12-25T22:38:20.023Z,75.50
2017-12-25T22:40:48.411Z,75.00
2017-12-25T22:43:16.047Z,74.90
2017-12-25T22:45:43.718Z,76.20
2017-12-25T22:48:11.274Z,75.50
2017-12-25T22:50:39.115Z,76.10
2017-12-25T22:53:06.715Z,75.50
2017-12-25T22:55:34.267Z,76.10
2017-12-25T22:58:01.878Z,76.90
2017-12-25T23:00:29.478Z,75.50
2017-12-25T23:02:57.100Z,76.00
2017-12-25T23:05:25.490Z,76.20
2017-12-25T23:07:53.595Z,76.20
2017-12-25T23:10:21.166Z,76.60
2017-12-25T23:12:48.769Z,76.90
2017-12-25T23:15:17.170Z,77.50
2017-12-25T23:17:44.855Z,77.40
2017-12-25T23:20:12.457Z,76.80
2017-12-25T23:22:40.062Z,77.00
2017-12-25T23:25:07.650Z,76.90
2017-12-25T23:27:35.273Z,76.90
2017-12-25T23:30:02.968Z,76.80
2017-12-25T23:32:30.548Z,77.50
2017-12-25T23:34:58.172Z,78.00
2017-12-25T23:37:25.754Z,77.30
2017-12-25T23:39:53.363Z,77.70
2017-12-25T23:42:21.691Z,77.10
2017-12-25T23:44:49.274Z,77.00
2017-12-25T23:47:16.867Z,77.60
2017-12-25T23:49:45.618Z,78.30
2017-12-25T23:52:13.198Z,78.30
2017-12-25T23:54:41.534Z,78.60
2017-12-25T23:57:09.307Z,77.80
2017-12-25T23:59:37.390Z,77.90
